Choose a state:
Most recent flow and stage for Montana
(Stations highlighted in red are currently above flood stage)
USGS
station
ID
USGS station name NWS
flood
stage
(ft)
Most recent
stage
(ft)
Most recent
flow
(cfs)
Historical
peaks
(cfs)
Most recent
local
date/time
NWS
station
ID
05014300 Swiftcurrent Cr ab Swiftcurrent Lk at Many Glacier   1.12 Ssn 2,000 2022-01-26 06:30:00 SCLM8
05014500 Swiftcurrent Creek at Many Glacier MT   3.39 745 6,700 2022-06-24 20:30:00 MGGM8
05015500 Lake Sherburne at Sherburne MT   4787.19

 

  2022-06-24 20:00:00 SBUM8
05017500 St. Mary River near Babb MT   5.95 4,110 16,500 2022-06-24 20:15:00 SMYM8
05018000 St. Mary Canal at intake near Babb MT   7.37 594   2022-06-24 20:15:00 SCIM8
05018500 St. Mary Canal at St. Mary Crossing near Babb MT   7.52 600 2022-06-24 20:15:00 SCCM8
05020500 St. Mary River at International Boundary 7.5 6.97 3,730 40,000 2022-06-24 20:10:00 SMBM8
06006000 Red Rock Cr ab Lakes, nr Lakeview, MT   3.76 95.1 293 2022-06-24 20:30:00 RRLM8
06012500 Red Rock R bl Lima Reservoir nr Monida MT   3.48 581 2,500 2022-06-24 20:30:00 LRRM8
06016000 Beaverhead River at Barretts MT   1.83 591 3,720 2022-06-24 20:15:00 BARM8
06017000 Beaverhead River at Dillon MT   3.16 122 1,740 2022-06-24 20:15:00 DILM8
06018500 Beaverhead River near Twin Bridges MT 7 3.36 58.9 3,130 2022-06-24 20:15:00 TWNM8
06019500 Ruby River above reservoir near Alder, MT   4.07 517 3,810 2022-06-24 20:45:00 RRRM8
06020600 Ruby River below reservoir near Alder, MT   4.11 532 3,010 2022-06-24 20:45:00 RRBM8
06023000 Ruby River near Twin Bridges MT   3.89 525 1,500 2022-06-24 20:45:00 RTBM8
06023100 Beaverhead River at Twin Bridges, MT   1.57 Ssn 5.52 2022-06-24 20:30:00 TWBM8
06024450 Big Hole River bl Big Lake Cr at Wisdom MT   3.08 262 4,550 2022-06-24 20:45:00 BGKM8
06024540 Big Hole River bl Mudd Cr nr Wisdom MT   3.90 1,160 7,300 2022-06-24 20:30:00 BHDM8
06025250 Big Hole River at Maiden Rock nr Divide MT   5.06 2,860 10,600 2022-06-24 20:45:00 MRDM8
06025500 Big Hole River near Melrose MT 6 3.81 2,970 23,000 2022-06-24 20:15:00 MLRM8
06026210 Big Hole River near Glen MT   4.23 3,280 11,900 2022-06-24 20:30:00 GNLM8
06026420 Big Hole R bl Hamilton Ditch nr Twin Bridges, MT   3.710 2,980 11,200 2022-06-24 20:30:00 THDM8
06026500 Jefferson River near Twin Bridges MT 10 5.79 3,650 16,500 2022-06-24 20:15:00 TWIM8
06033000 Boulder River near Boulder MT   6.07 240 7,000 2022-06-24 20:15:00 BLDM8
06035000 Willow Creek near Harrison MT   2.34 150 813 2022-06-24 20:15:00 WCHM8
06036650 Jefferson River near Three Forks MT 8 5.73 4,840 17,400 2022-06-24 20:00:00 TFKM8
06036805 Firehole River at Old Faithful, YNP   2.97 134 477 2022-06-24 20:00:00  
06036905 Firehole River near West Yellowstone MT   3.34 408 2,050 2022-06-24 20:00:00  
06036940 Tantalus Creek at Norris Junction, YNP   1.65 6.22 60.0 2022-06-24 20:30:00  
06037100 Gibbon River at Madison Jct, YNP   5.17 242 1,010 2022-06-24 20:00:00 GMJW4
06037500 Madison River near West Yellowstone, MT   2.06 642 2,820 2022-06-24 20:30:00 MDSM8
06038500 Madison River bl Hebgen Lake nr Grayling MT   2.27 1,630 10,200 2022-06-24 20:45:00 HBDM8
06038800 Madison River at Kirby Ranch nr Cameron MT   2.78 2,310 5,030 2022-06-24 20:45:00 CMRM8
06040000 Madison River near Cameron MT   3.59 3,340 8,830 2022-06-24 20:15:00 CMNM8
06040800 Madison River ab powerplant nr McAllister MT   7.57 2,420 6,100 2022-06-24 20:30:00 MRPM8
06041000 Madison River bl Ennis Lake nr McAllister MT   4.92 3,750 9,550 2022-06-24 20:45:00 MADM8
06043120 Gallatin River above Deer Creek, near Big Sky, MT   7.14 2,290 4,890 2022-06-24 20:30:00 GBSM8
06043500 Gallatin River near Gallatin Gateway, MT 6 4.31 3,700 9,160 2022-06-24 20:00:00 GLGM8
06048650 E Gallatin R ab Water Reclamation Fa nr Bozeman MT   4.91 243 2,410 2022-06-24 20:30:00 EGBM8
06050000 Hyalite C at Hyalite R S nr Bozeman MT   3.20 234 956 2022-06-24 20:30:00 HCCM8
06052500 Gallatin River at Logan MT 9 7.33 3,990 9,840 2022-06-24 20:00:00 LOGM8
06054500 Missouri River at Toston MT 10.5 7.48 12,100 34,000 2022-06-24 20:00:00 TOSM8
06061500 Prickly Pear Creek near Clancy MT   1.24 58.6 2,300 2022-06-24 20:30:00 PKPM8
06062500 Tenmile Creek near Rimini MT   2.15 26.1 3,290 2022-06-24 20:45:00 RIMM8
06063000 Tenmile Creek near Helena MT 4.5 2.87 40.9 3,770 2022-06-24 20:15:00 TMHM8
06065500 Missouri River bl Hauser Dam near Helena MT   3.76 4,080 33,300 2022-06-24 20:00:00 HASM8
06066500 Missouri River bl Holter Dam nr Wolf Cr MT   2.59 3,990 34,800 2022-06-24 20:45:00 HTRM8
06071300 Little Prickly Pear Cr at Wolf Cr MT   2.90 46.0 4,500 2022-06-24 20:45:00 LPPM8
06073500 Dearborn River near Craig MT 6.5 4.16 226 15,400 2022-06-24 20:15:00 DBRM8
06074000 Missouri River at Cascade MT   6.92 4,520 54,200 2022-06-24 20:30:00 CASM8
06076590 Camas C nr Mouth nr White Sulphur Springs MT   3.66

 

  2022-06-24 20:45:00  
06076690 Smith River near Ft Logan MT   3.31 221 4,600 2022-06-24 20:30:00 SFLM8
06077200 Smith River bl Eagle Cr nr Fort Logan MT   4.25 544 4,030 2022-06-24 20:15:00 SMHM8
06077500 Smith River near Eden MT   4.53 856 12,300 2022-06-24 20:45:00 EDNM8
06078200 Missouri River near Ulm MT 13.5 4.41 5,160 35,000 2022-06-24 20:00:00 ULMM8
06078500 North Fork Sun River near Augusta MT 9 6.04 1,580 51,100 2022-06-24 20:30:00 NFSM8
06079000 South Fork Sun River near Augusta MT   3.99 1,470 28,800 2022-06-24 20:15:00 SSNM8
06080900 Sun River bl Diversion Dam nr Augusta MT   6.65 2,050 59,700 2022-06-24 20:45:00  
06082200 Sun River bl Willow Cr nr Augusta MT   3.81 1,890 46,700 2022-06-24 20:15:00 SRVM8
06085800 Sun River at Simms MT 7.5 4.56 2,260 50,000 2022-06-24 20:30:00 SSRM8
06088500 Muddy Creek at Vaughn MT 12 5.04 367 7,600 2022-06-24 20:30:00 MDYM8
06089000 Sun River near Vaughn MT 6 3.76 2,680 53,500 2022-06-24 20:00:00 VAUM8
06090300 Missouri River near Great Falls MT   4.08 8,790 72,000 2022-06-24 20:45:00 GFLM8
06090500 Belt Creek near Monarch MT 6.5 3.53 417 11,000 2022-06-24 20:15:00 BTCM8
06090800 Missouri River at Fort Benton MT 13.5 3.33 9,020 140,000 2022-06-24 20:30:00 FBNM8
06091700 Two Medicine River bl South Fork nr Browning MT   4.88 1,850 11,700 2022-06-24 20:15:00 TMRM8
06092020 Two Medicine River ab Badger Cr, nr Piegan, MT   3.92 1,500 2,320 2022-06-24 20:15:00  
06093200 Badger Cr bl Four Horns Canal nr Browning MT 7 5.94 676 20,700 2022-06-24 20:15:00 BDCM8
06094900 Birch Cr bl Heart Butte Road, nr Heart Butte, MT   2.79 367   2022-06-24 20:15:00  
06098120 Birch Creek at Bullhead Bridge, nr Valier, MT   4.46 38.2   2022-06-24 20:30:00  
06098800 Cut Bank Cr ab Gillam Coulee, nr Sundance, MT   5.70 811 1,480 2022-06-24 20:15:00  
06099000 Cut Bank Creek at Cut Bank MT   3.97 829 16,600 2022-06-24 20:30:00 CBKM8
06099500 Marias River near Shelby MT 9 6.36 3,560 241,000 2022-06-24 20:30:00 SHLM8
06101200 Willow Creek near Galata, MT   1.43

 

1,180 2022-06-24 20:30:00  
06101500 Marias River near Chester MT   4.18 991 10,400 2022-06-24 20:15:00 MRCM8
06102050 Marias River near Loma MT   1.40 624 12,300 2022-06-24 20:00:00 LOMM8
06102500 Teton River bl South Fork nr Choteau MT 9 4.91 410 54,600 2022-06-24 20:45:00 TSFM8
06108000 Teton River near Dutton MT 9 2.29 81.8 71,300 2022-06-24 20:30:00 DTTM8
06108800 Teton River at Loma MT   0.87 44.4 6,520 2022-06-24 20:30:00 LTRM8
06109500 Missouri River at Virgelle MT 17 4.90 10,500 122,000 2022-06-24 20:00:00 VRGM8
06110020 Judith River above Carr Creek near Utica MT   3.46 130 769 2022-06-24 20:30:00 JRUM8
06111800 Big Spring Cr at R&B Trading Post nr Lewistown MT   3.60 117 1,020 2022-06-24 20:30:00 LTPM8
06114700 Judith River nr mouth, nr Winifred MT   5.18 318 15,900 2022-06-24 20:15:00 JDRM8
06115200 Missouri River near Landusky MT 27 16.67 11,700 137,000 2022-06-24 20:00:00 LDKM8
06119200 South Fork Musselshell River at Martinsdale, MT   2.57 76.5 650 2022-06-24 20:45:00  
06119600 Musselshell River nr Martinsdale, MT   2.13 99.9 4,780 2022-06-24 20:15:00 MRMM8
06120500 Musselshell River at Harlowton MT 7 3.15 153 7,270 2022-06-24 20:00:00 HLWM8
06123030 Musselshell River ab Mud Cr nr Shawmut MT 8 3.29 32.4 8,900 2022-06-24 20:30:00 SHAM8
06125600 Musselshell River ab Big Coulee Creek at Lavina MT 9.5 2.00 119 5,700 2022-06-24 20:30:00 LVNM8
06126500 Musselshell River near Roundup MT 10 1.77 121 15,000 2022-06-24 20:00:00 RUPM8
06127500 Musselshell River at Musselshell MT 11 2.23 114 16,200 2022-06-24 20:30:00 MUSM8
06130000 Flatwillow Creek near Mosby MT   4.60 0.00 19,700 2022-06-24 20:00:00 MFLM8
06130500 Musselshell River at Mosby MT 10 2.79 90.8 25,100 2022-06-24 20:45:00 MSBM8
06131200 Nelson Creek near Van Norman MT   2.10 0.02 1,750 2022-06-24 20:15:00  
06133500 N F Milk River ab St. Mary canal nr Browning MT   1.70 12.7 3,090 2022-06-24 20:15:00 NFMM8
06135000 Milk River at Eastern Crossing of Int Bndry 9.5 4.54 1,150 14,400 2022-06-24 20:15:00 ERNM8
06137570 Boxelder Creek near Rocky Boy, MT   3.77 Rat 1,400 2022-06-24 20:00:00  
06137575 Boxelder Creek at Box Elder, MT   6.91 2.37 12.7 2022-06-24 20:00:00  
06138580 Big Sandy Cr ab Spring Coulee, nr Laredo, MT   2.64 0.18 27.5 2022-06-24 20:00:00  
06139500 Big Sandy Creek near Havre MT 8.5 1.78 0.05 6,000 2022-06-24 20:30:00 BSMM8
06140500 Milk River at Havre MT 10 1.46 322 20,000 2022-06-24 20:15:00 HVRM8
06142400 Clear Creek near Chinook MT 5.5 1.55 13.6 1,490 2022-06-24 20:30:00 CCMM8
06151500 Battle Creek near Chinook MT 10 1.37 15.2 19,400 2022-06-24 20:30:00 BCMM8
06154100 Milk River near Harlem MT 21 3.53 222 19,000 2022-06-24 20:30:00 HRLM8
06154400 Peoples Creek near Hays MT   2.63 0.82 8,460 2022-06-24 20:15:00 PEOM8
06155030 Milk River near Dodson MT 23 2.97 3.35 13,200 2022-06-24 20:15:00 DMRM8
06155500 Milk River at Malta MT 16 1.11 15.4 24,000 2022-06-24 20:15:00 MALM8
06164000 Frenchman River at international boundary 12 1.580 2.70 22,700 2022-06-24 20:25:00 FREM8
06164510 Milk River at Juneberg Bridge nr Saco MT 20 2.81 78.6 12,400 2022-06-24 20:00:00 SACM8
06166000 Beaver Cr bl Guston Coulee nr Saco MT 11 2.03 33.1 23,500 2022-06-24 20:15:00 GSCM8
06167500 Beaver Creek near Hinsdale MT 14 2.83 2.88 8,210 2022-06-24 20:30:00 BCHM8
06169500 Rock Creek bl Horse Creek nr int'l boundary   2.73 5.61 5,110 2022-06-24 20:30:00 ORHM8
06172310 Milk River at Tampico MT 23 1.84 28.2 45,000 2022-06-24 20:30:00 TMPM8
06174500 Milk River at Nashua MT 20 2.16 210 45,300 2022-06-24 20:00:00 NSHM8
06175100 Missouri R at W Frazer Pump Plant nr Frazer MT   8.49

 

  2022-06-24 20:00:00  
06175510 Missouri R at E Frazer Pump Plant nr Frazer MT   42.39

 

  2022-06-24 20:30:00  
06177000 Missouri River near Wolf Point MT 23 11.29 8,120 93,200 2022-06-24 20:00:00 WPTM8
06177500 Redwater River at Circle MT 11 3.49 0.32 6,960 2022-06-24 20:30:00 RRCM8
06178000 Poplar River at international boundary 6 2.37 1.44 12,700 2022-06-24 20:15:00 PPRM8
06178500 East Poplar River at international boundary 10 5.28 2.14 4,020 2022-06-24 20:30:00 EPRM8
06181000 Poplar River near Poplar MT 16 6.87 37.4 40,000 2022-06-24 20:30:00 PLRM8
06183450 Big Muddy Creek near Antelope MT 12 1.92 18.9 3,190 2022-06-24 20:15:00 BGCM8
06185110 Big Muddy Creek nr mouth nr Culbertson MT 16 4.43 13.7 2,480 2022-06-24 20:15:00 CBMM8
06185500 Missouri River near Culbertson MT 19 3.34 8,520 104,000 2022-06-24 20:00:00 CLBM8
06186500 Yellowstone River at Yellowstone Lk Outlet YNP 9 6.56 5,090 9,950 2022-06-24 20:30:00 YLOW4
06187915 Soda Butte Cr at Park Bndry at Silver Gate   3.35 Rat 1,430 2022-06-24 20:45:00 SBCM8
06188000 Lamar River nr Tower Ranger Station YNP 15 5.75 5,470 19,500 2022-06-24 20:15:00 TFLW4
06190540 Boiling River at Mammoth,YNP   1.17 26.0 36.0 2022-06-24 20:15:00  
06191000 Gardner River near Mammoth, YNP   2.97 765 2,110 2022-06-24 20:45:00 GDRM8
06191500 Yellowstone River at Corwin Springs MT 11 7.09 13,800 32,200 2022-06-24 20:00:00 CORM8
06192500 Yellowstone River near Livingston, MT 10 6.37 16,600 40,600 2022-06-24 20:45:00 LIVM8
06192900 Dugout Creek at mouth, nr Wilsall, MT   2.27 Rat   2022-06-24 20:15:00  
06192980 Shields River ab Smith Cr, nr Wilsall, MT   3.16

 

  2022-06-24 20:15:00 SRCM8
06195600 Shields River nr Livingston MT 5.5 1.97 445 5,600 2022-06-24 20:30:00 SLDM8
06197800 East Boulder River bl Dry Fork Cr nr Mcleod, MT   4.67 587 1,280 2022-06-24 20:30:00 EBRM8
06200000 Boulder River at Big Timber MT 8 5.64 3,280 10,400 2022-06-24 20:45:00 BTMM8
06204050 West Rosebud Creek near Roscoe MT   2.67 717 1,630 2022-06-24 20:00:00 WRDM8
06204070 W Rosebud Cr at Emerald Lk Campground nr Roscoe   3.24 919 1,390 2022-06-24 20:50:00 WREM8
06205000 Stillwater River near Absarokee MT 7.5 5.96 6,130 12,000 2022-06-24 20:15:00 SRAM8
06207500 Clarks Fork Yellowstone River nr Belfry MT 9 5.76 7,330 14,800 2022-06-24 20:00:00 BFYM8
06208500 Clarks Fork Yellowstone River at Edgar MT 9 7.02 6,170 11,400 2022-06-24 20:30:00 EDGM8
06209500 Rock Creek near Red Lodge MT   6.73 818 3,110 2022-06-24 20:00:00 ROKM8
06211000 Red Lodge Cr ab Cooney Re nr Boyd MT   2.96 228 4,700 2022-06-24 20:15:00 BYDM8
06211500 Willow Creek near Boyd MT   3.03 58.7 2,110 2022-06-24 20:30:00 BOYM8
06214500 Yellowstone River at Billings MT 13.5 9.74 34,600 82,000 2022-06-24 20:00:00 BILM8
06286490 Big Horn Canal near St. Xavier MT   72.23 272   2022-06-24 20:15:00  
06287000 Bighorn River near St. Xavier, MT   62.57 7,070 37,400 2022-06-24 20:15:00 STXM8
06287800 Bighorn River at bridge, at St. Xavier, MT   8.73 7,410 15,600 2022-06-24 20:30:00 SXVM8
06288400 Bighorn River at Two Leggins Bridge, near Hardin   12.42 6,940 16,300 2022-06-24 20:30:00 TLBM8
06289000 Little Bighorn River at State Line nr Wyola MT   3.29 482 2,730 2022-06-24 20:00:00 LBSM8
06293890 Agency Canal Tailwaste near Hardin MT   3.86 30.4   2022-06-24 20:15:00  
06294000 Little Bighorn River near Hardin MT 8 4.12 657 22,600 2022-06-24 20:15:00 HRDM8
06294500 Bighorn River ab Tullock Cr nr Bighorn MT   4.77 8,130 33,200 2022-06-24 20:00:00 BGHM8
06295000 Yellowstone River at Forsyth MT 14 7.48 40,900 110,000 2022-06-24 20:45:00 FRYM8
06295113 Rosebud C at Reservation Bndry nr Kirby MT   3.61 Bkw 1,720 2022-06-24 20:45:00 RCRM8
06295220 Rosebud C Bel Lame Deer C nr Lame Deer MT   4.10 5.53 1,150 2022-06-24 20:45:00 RCLM8
06306300 Tongue River at State Line nr Decker MT   5.24 1,370 17,500 2022-06-24 20:15:00 DSLM8
06307500 Tongue River at Tongue R Dam nr Decker MT   13.44 1,540 10,800 2022-06-24 20:30:00 DKRM8
06307616 Tongue R at Birney Day School Br nr Birney MT 7 4.10 1,420 7,160 2022-06-24 20:30:00 BNYM8
06307662 Tongue River at Ashland, MT   14.06 1,830   2022-06-24 20:45:00  
06307830 Tongue R bl Brandenberg bridge nr Ashland MT   7.46 2,010 8,340 2022-06-24 20:15:00 ASLM8
06308500 Tongue River at Miles City, MT 10 5.81 2,060 15,300 2022-06-24 20:00:00 MICM8
06309000 Yellowstone River at Miles City, MT 14 9.71 41,400 102,000 2022-06-24 20:00:00 MILM8
06324500 Powder River at Moorhead MT   4.19 638 100,000 2022-06-24 20:45:00 MHDM8
06326500 Powder River near Locate MT   2.53 1,200 31,000 2022-06-24 20:00:00 LOCM8
06327500 Yellowstone River at Glendive, MT 53.5 49.13 43,700 125,000 2022-06-24 20:00:00 GLNM8
06328495 Yellowstone River Fish Bypass Channel nr Intake MT   20.95 7,170   2022-06-24 20:45:00  
06329500 Yellowstone River near Sidney MT 19 12.39 48,900 159,000 2022-06-24 20:00:00 SIDM8
12301250 Tobacco River at Eureka, MT   4.86 1,300 2,220 2022-06-24 20:30:00  
12301933 Kootenai River bl Libby Dam nr Libby MT 27.5 20.41 10,800 54,000 2022-06-24 20:00:00 KBDM8
12302055 Fisher River near Libby MT 7.5 4.80 924 12,000 2022-06-24 19:45:00 FISM8
12304500 Yaak River near Troy MT 8 5.84 2,370 13,400 2022-06-24 20:45:00 TRYM8
12305000 KOOTENAI RIVER AT LEONIA, ID   15.96 18,100 123,000 2022-06-24 19:15:00 LEOI1
12323233 Blacktail Creek above Grove Gulch, at Butte, MT 8.7 4.94 10.7 77.7 2022-06-24 20:45:00 BKCM8
12323242 Silver Bow Creek at Montana Street, at Butte, MT   6.46 22.7   2022-06-24 20:45:00  
12323250 Silver Bow Cr bl Blacktail Cr, at Butte, MT   1.75 30.7 447 2022-06-24 20:45:00  
12323600 Silver Bow Creek at Opportunity MT   2.10 61.1 1,300 2022-06-24 20:45:00  
12323670 Mill Creek nr Anaconda, MT   3.06 110 432 2022-06-24 20:00:00  
12323700 Mill Creek at Opportunity, MT   2.91 89.4 284 2022-06-24 20:30:00  
12323710 Willow Creek nr Anaconda, MT   1.65 12.1 184 2022-06-24 20:00:00  
12323720 Willow Creek at Opportunity, MT   4.18 19.3 211 2022-06-24 20:30:00  
12323750 Silver Bow Creek at Warm Springs MT   2.37 155 1,320 2022-06-24 20:15:00  
12323760 Warm Springs Creek near Anaconda MT 4.4 3.18 277 930 2022-06-24 20:30:00 ANDM8
12323770 Warm Springs Creek at Warm Springs MT   4.08 197 828 2022-06-24 20:45:00  
12323800 Clark Fork near Galen MT   2.80 344 1,410 2022-06-24 20:30:00  
12323840 Lost Creek near Anaconda MT   2.87 9.39 144 2022-06-24 20:00:00  
12323850 Lost Creek near Galen, MT   1.55 15.9 164 2022-06-24 20:30:00  
12324200 Clark Fork at Deer Lodge MT 6 3.17 532 2,500 2022-06-24 20:30:00 DLGM8
12324400 Clark Fork ab Little Blackfoot R nr Garrison MT   3.89 519 2,690 2022-06-24 20:45:00  
12324590 Little Blackfoot River near Garrison MT   1.17 259 8,650 2022-06-24 20:30:00  
12324680 Clark Fork at Goldcreek MT   5.09 840 12,000 2022-06-24 20:00:00  
12325000 Georgetown Lake near Philipsburg, MT   6429.44

 

  2022-06-24 20:15:00  
12325500 Flint Creek near Southern Cross MT   1.03 38.2 192 2022-06-24 19:45:00  
12329500 Flint Creek at Maxville MT   2.65 152 3,140 2022-06-24 19:45:00  
12330000 Boulder Creek at Maxville MT   2.46 151 2,720 2022-06-24 20:30:00  
12331500 Flint Creek near Drummond MT   2.70 155 1,880 2022-06-24 20:30:00  
12331800 Clark Fork near Drummond MT 8 3.98 1,110 9,800 2022-06-24 20:15:00 DRMM8
12332000 Middle Fork Rock Cr nr Philipsburg MT   2.81 229 1,680 2022-06-24 20:15:00  
12334510 Rock Creek near Clinton MT 9 6.59 1,620 6,500 2022-06-24 19:45:00 RCCM8
12334550 Clark Fork at Turah Bridge nr Bonner MT   3.84 2,990 13,300 2022-06-24 20:30:00  
12335100 Blackfoot R ab Nevada Cr nr Helmville MT   5.91 1,150 4,860 2022-06-24 20:45:00  
12335500 Nevada Cr ab reservoir, nr Helmville, MT   2.14 41.1 1,800 2022-06-24 20:45:00  
12338300 NF Blackfoot R ab Dry Gulch nr Ovando MT   6.40 1,470 4,700 2022-06-24 20:00:00  
12340000 Blackfoot River near Bonner MT 10 5.70 5,060 19,200 2022-06-24 20:45:00 BONM8
12340500 Clark Fork above Missoula MT 7.5 6.01 8,180 48,000 2022-06-24 20:00:00 ABOM8
12342500 West Fork Bitterroot River nr Conner MT   2.86 835 4,060 2022-06-24 20:15:00 WFBM8
12344000 Bitterroot River near Darby MT 7.5 4.47 3,110 11,500 2022-06-24 20:15:00 DARM8
12350250 Bitterroot River at Bell Crossing nr Victor MT 11 8.99 5,990 18,700 2022-06-24 20:45:00 VICM8
12352500 Bitterroot River near Missoula MT 11 8.09 9,020 38,300 2022-06-24 20:45:00 BITM8
12353000 Clark Fork below Missoula MT 11 6.47 17,100 55,100 2022-06-24 20:00:00 BELM8
12354000 St. Regis River near St. Regis, MT 8 3.87 1,030 29,000 2022-06-24 20:45:00 STRM8
12354500 Clark Fork at St. Regis MT 19 11.87 21,000 68,900 2022-06-24 20:45:00 SRGM8
12355000 Flathead River at Flathead British Columbia 10.5 7.59 3,390 20,900 2022-06-24 20:45:00 NFFQ2
12355342 Hallowat Creek abv Kletomus Creek, near Olney, MT   4.21 192   2022-06-24 20:45:00  
12355347 Big Creek below Lookout Creek, near Apgar, MT   4.04 742   2022-06-24 20:30:00  
12355500 N F Flathead River nr Columbia Falls MT 13 7.95 14,300 69,100 2022-06-24 20:45:00 FCFM8
12357800 Snyder Creek nr mouth, nr West Glacier, MT 8 3.92

 

  2022-06-24 20:40:00 SNYM8
12358500 M F Flathead River near West Glacier MT 10 7.34 16,100 140,000 2022-06-24 20:45:00 WGCM8
12359800 S F Flathead R ab Twin C nr Hungry Horse MT   10.75 11,300 50,900 2022-06-24 20:45:00 TNCM8
12362000 Hungry Horse Reservoir nr Hungry Horse MT   3558.24

 

  2022-06-24 20:45:00 HHWM8
12362500 S F Flathead River nr Columbia Falls MT   11.31 12,900 46,200 2022-06-24 20:45:00 SFCM8
12363000 Flathead River at Columbia Falls MT 13 13.39 44,100 176,000 2022-06-24 20:45:00 CFMM8
12363500 Flathead River near Kalispell, MT   20.62 45,400   2022-06-24 20:45:00  
12365700 Stillwater River at Lawrence Park, at Kalispell 7.5 6.28 1,730 3,940 2022-06-24 20:45:00 SRLM8
12366000 Whitefish River near Kalispell MT 5 4.76 1,190 1,580 2022-06-24 20:45:00 WHRM8
12366500 Flathead River at Foys Bend nr Kalispell MT   101.46

 

  2022-06-24 20:45:00 FOYM8
12370000 Swan River near Bigfork, MT 6.5 6.01 6,030 8,890 2022-06-24 20:00:00 SWRM8
12371550 Flathead Lake at Polson MT   2893.57

 

  2022-06-24 20:30:00 KERM8
12372000 Flathead River near Polson MT 18 16.84 57,100 110,000 2022-06-24 20:50:00 FPOM8
12377150 Mission Creek ab reservoir nr St. Ignatius MT   3.47 300 915 2022-06-24 20:15:00  
12381400 South Fork Jocko River near Arlee MT   2.77 243 1,220 2022-06-24 20:15:00  
12388700 Flathead River at Perma MT   21.56 53,900 54,900 2022-06-24 20:30:00 PERM8
12389000 Clark Fork near Plains MT 16 14.30 80,200 134,000 2022-06-24 20:45:00 PLNM8
12389500 Thompson River near Thompson Falls MT 7 4.01 951 6,190 2022-06-24 20:45:00 THRM8
12390700 Prospect Creek at Thompson Falls MT 7.5 3.17 594 5,490 2022-06-24 20:15:00 PRCM8
480608115242901 Libby Wetland Site bl Schrieber Lake nr Libby, MT   3.44 Bkw 34.0 2022-06-24 20:30:00